Terminal Aerodrome Forecast
Issued by NWS

Home | Current Version | Previous Version | Text Only | Print | Product List | Glossary On
Versions: 1 2 3 4 5 6 7 8 9 10 11 12 13 14 15
000
FTUS45 KTFX 251120
TAFBZN
TAF
KBZN 251120Z 2512/2618 VRB05KT P6SM FEW050 FEW250
     FM260000 35009KT P6SM FEW050 SCT090 PROB30 2601/2604 4SM -RA
      BKN025
     FM260400 VRB03KT P6SM FEW020 SCT090 PROB30 2604/2605 4SM -RA
      BKN020=

USA.gov is the U.S. government's official web portal to all federal, state and local government web resources and services.